createdAt,value
2017-05-22T00:02:04.889Z,85.70
2017-05-22T00:04:33.169Z,85.40
2017-05-22T00:07:00.725Z,85.40
2017-05-22T00:09:28.248Z,85.10
2017-05-22T00:11:56.570Z,85.30
2017-05-22T00:14:24.871Z,85.80
2017-05-22T00:16:53.161Z,85.90
2017-05-22T00:19:21.470Z,86.50
2017-05-22T00:21:49.771Z,86.50
2017-05-22T00:24:18.127Z,86.50
2017-05-22T00:26:46.419Z,86.40
2017-05-22T00:29:14.710Z,86.70
2017-05-22T00:31:43.015Z,87.20
2017-05-22T00:34:11.315Z,87.50
2017-05-22T00:36:39.663Z,87.40
2017-05-22T00:39:07.984Z,87.30
2017-05-22T00:41:36.270Z,87.60
2017-05-22T00:44:04.576Z,88.00
2017-05-22T00:46:32.866Z,87.90
2017-05-22T00:49:01.216Z,88.30
2017-05-22T00:51:29.562Z,88.00
2017-05-22T00:53:57.859Z,88.10
2017-05-22T00:56:26.166Z,88.30
2017-05-22T00:58:54.463Z,88.00
2017-05-22T01:01:22.785Z,88.60
2017-05-22T01:03:51.074Z,88.80
2017-05-22T01:06:19.359Z,89.20
2017-05-22T01:08:47.663Z,89.20
2017-05-22T01:11:15.182Z,89.10
2017-05-22T01:13:43.491Z,89.40
2017-05-22T01:16:11.786Z,88.90
2017-05-22T01:18:40.125Z,89.20
2017-05-22T01:21:08.414Z,88.20
2017-05-22T01:23:36.702Z,87.80
2017-05-22T01:26:05.011Z,88.10
2017-05-22T01:28:33.303Z,88.10
2017-05-22T01:31:01.630Z,88.20
2017-05-22T01:33:29.915Z,88.30
2017-05-22T01:35:58.198Z,88.80
2017-05-22T01:38:26.502Z,89.60
2017-05-22T01:40:54.793Z,90.00
2017-05-22T01:43:23.100Z,90.10
2017-05-22T01:45:51.389Z,90.20
2017-05-22T01:48:19.689Z,90.30
2017-05-22T01:50:47.994Z,90.40
2017-05-22T01:53:16.286Z,90.60
2017-05-22T01:55:44.617Z,90.60
2017-05-22T01:58:12.914Z,90.50
2017-05-22T02:00:41.198Z,90.40
2017-05-22T02:03:09.498Z,90.60
2017-05-22T02:05:37.786Z,90.70
2017-05-22T02:08:06.109Z,90.70
2017-05-22T02:10:34.393Z,90.70
2017-05-22T02:13:02.682Z,90.90
2017-05-22T02:15:30.990Z,90.80
2017-05-22T02:17:59.274Z,90.70
2017-05-22T02:20:27.603Z,90.70
2017-05-22T02:22:55.907Z,90.60
2017-05-22T02:25:24.194Z,90.80
2017-05-22T02:27:52.498Z,91.00
2017-05-22T02:30:20.782Z,91.10
2017-05-22T02:32:49.099Z,91.20
2017-05-22T02:35:17.390Z,91.10
2017-05-22T02:37:45.678Z,91.10
2017-05-22T02:40:13.982Z,91.00
2017-05-22T02:42:42.271Z,90.90
2017-05-22T02:45:14.158Z,90.90
2017-05-22T02:47:42.451Z,90.90
2017-05-22T02:50:10.737Z,91.10
2017-05-22T02:52:39.048Z,91.10
2017-05-22T02:55:07.335Z,91.30
2017-05-22T02:57:35.671Z,91.40
2017-05-22T03:00:03.957Z,91.20
2017-05-22T03:02:32.244Z,91.20
2017-05-22T03:05:00.557Z,91.20
2017-05-22T03:07:28.850Z,91.20
2017-05-22T03:09:57.166Z,91.40
2017-05-22T03:12:25.470Z,91.20
2017-05-22T03:14:53.759Z,91.30
2017-05-22T03:17:22.072Z,91.20
2017-05-22T03:19:50.367Z,90.90
2017-05-22T03:22:18.682Z,91.00
2017-05-22T03:24:46.975Z,90.90
2017-05-22T03:27:15.263Z,90.80
2017-05-22T03:29:43.581Z,90.80
2017-05-22T03:32:11.882Z,90.60
2017-05-22T03:34:40.209Z,91.00
2017-05-22T03:37:08.506Z,90.30
2017-05-22T03:39:36.789Z,90.40
2017-05-22T03:42:05.098Z,90.20
2017-05-22T03:44:33.386Z,90.10
2017-05-22T03:47:01.703Z,89.90
2017-05-22T03:49:29.991Z,89.80
2017-05-22T03:51:58.273Z,89.50
2017-05-22T03:54:26.582Z,88.60
2017-05-22T03:56:54.870Z,87.40
2017-05-22T03:59:23.184Z,86.50
2017-05-22T04:01:51.479Z,86.60
2017-05-22T04:04:19.762Z,85.60
2017-05-22T04:06:48.066Z,85.00
2017-05-22T04:09:16.360Z,84.40
2017-05-22T04:11:44.762Z,83.20
2017-05-22T04:14:13.049Z,80.30
2017-05-22T04:16:41.335Z,79.60
2017-05-22T04:19:09.643Z,78.40
2017-05-22T04:21:37.222Z,78.40
2017-05-22T04:24:05.546Z,77.40
2017-05-22T04:26:33.845Z,77.50
2017-05-22T04:29:02.147Z,76.30
2017-05-22T04:31:30.462Z,75.70
2017-05-22T04:33:58.754Z,73.80
2017-05-22T04:36:27.091Z,73.20
2017-05-22T04:38:55.391Z,72.00
2017-05-22T04:41:23.686Z,71.40
2017-05-22T04:43:52.011Z,69.80
2017-05-22T04:46:20.318Z,69.60
2017-05-22T04:48:48.631Z,64.90
2017-05-22T04:51:16.922Z,63.30
2017-05-22T04:53:45.226Z,57.60
2017-05-22T04:56:13.542Z,56.20
2017-05-22T04:58:41.836Z,56.30
2017-05-22T05:01:10.150Z,53.90
2017-05-22T05:03:38.441Z,53.50
2017-05-22T05:06:06.727Z,48.30
2017-05-22T05:08:35.038Z,43.30
2017-05-22T05:11:03.322Z,46.20
2017-05-22T05:13:31.631Z,48.10
2017-05-22T05:15:59.929Z,51.30
2017-05-22T05:18:28.224Z,53.40
2017-05-22T05:20:56.538Z,55.90
2017-05-22T05:23:24.826Z,55.40
2017-05-22T05:25:53.169Z,53.00
2017-05-22T05:28:21.471Z,51.70
2017-05-22T05:30:49.764Z,51.50
2017-05-22T05:33:18.090Z,50.10
2017-05-22T05:35:46.388Z,49.00
2017-05-22T05:38:14.686Z,45.50
2017-05-22T05:40:43.008Z,44.20
2017-05-22T05:43:11.298Z,45.40
2017-05-22T05:45:39.630Z,48.20
2017-05-22T05:48:07.922Z,49.30
2017-05-22T05:50:36.218Z,50.50
2017-05-22T05:53:04.530Z,50.00
2017-05-22T05:55:32.827Z,46.50
2017-05-22T05:58:01.146Z,46.60
2017-05-22T06:00:29.442Z,48.30
2017-05-22T06:02:57.729Z,48.50
2017-05-22T06:05:26.043Z,46.20
2017-05-22T06:07:54.336Z,43.90
2017-05-22T06:10:22.668Z,40.90
2017-05-22T06:12:50.960Z,41.10
2017-05-22T06:15:19.258Z,40.90
2017-05-22T06:17:47.575Z,41.70
2017-05-22T06:20:15.865Z,43.30
2017-05-22T06:22:44.206Z,44.30
2017-05-22T06:25:12.517Z,46.20
2017-05-22T06:27:40.826Z,46.10
2017-05-22T06:30:09.135Z,44.90
2017-05-22T06:32:37.437Z,41.50
2017-05-22T06:35:05.766Z,39.50
2017-05-22T06:37:34.067Z,37.30
2017-05-22T06:40:02.363Z,36.60
2017-05-22T06:42:30.684Z,37.00
2017-05-22T06:44:58.986Z,38.50
2017-05-22T06:47:27.354Z,39.80
2017-05-22T06:49:55.656Z,39.90
2017-05-22T06:52:23.975Z,41.10
2017-05-22T06:54:52.302Z,43.00
2017-05-22T06:57:20.606Z,43.70
2017-05-22T06:59:48.937Z,45.40
2017-05-22T07:02:17.242Z,44.70
2017-05-22T07:04:45.551Z,44.70
2017-05-22T07:07:13.869Z,45.10
2017-05-22T07:09:42.175Z,43.90
2017-05-22T07:12:10.495Z,44.30
2017-05-22T07:14:38.796Z,44.00
2017-05-22T07:17:07.100Z,44.80
2017-05-22T07:19:35.426Z,46.10
2017-05-22T07:22:03.726Z,45.30
2017-05-22T07:24:32.050Z,43.30
2017-05-22T07:27:00.362Z,43.00
2017-05-22T07:29:28.653Z,40.70
2017-05-22T07:31:56.962Z,38.60
2017-05-22T07:34:25.302Z,38.30
2017-05-22T07:36:53.613Z,37.80
2017-05-22T07:39:21.920Z,37.30
2017-05-22T07:41:50.223Z,36.10
2017-05-22T07:44:18.540Z,36.40
2017-05-22T07:46:46.842Z,37.30
2017-05-22T07:49:15.167Z,37.20
2017-05-22T07:51:43.466Z,36.60
2017-05-22T07:54:11.754Z,36.90
2017-05-22T07:56:39.294Z,36.90
2017-05-22T07:59:07.590Z,36.80
2017-05-22T08:01:35.919Z,36.60
2017-05-22T08:04:04.209Z,36.20
2017-05-22T08:06:32.510Z,35.60
2017-05-22T08:09:00.830Z,35.90
2017-05-22T08:11:29.131Z,34.50
2017-05-22T08:13:57.454Z,34.90
2017-05-22T08:16:25.760Z,32.60
2017-05-22T08:18:54.062Z,34.10
2017-05-22T08:21:22.378Z,32.80
2017-05-22T08:23:50.678Z,32.70
2017-05-22T08:26:19.020Z,29.30
2017-05-22T08:28:47.321Z,28.40
2017-05-22T08:31:15.623Z,30.00
2017-05-22T08:33:43.944Z,29.70
2017-05-22T08:36:12.245Z,30.90
2017-05-22T08:38:40.561Z,31.80
2017-05-22T08:41:08.867Z,33.40
2017-05-22T08:43:37.158Z,31.90
2017-05-22T08:46:05.477Z,31.60
2017-05-22T08:48:33.772Z,30.00
2017-05-22T08:51:01.331Z,30.00
2017-05-22T08:53:29.633Z,27.70
2017-05-22T08:55:57.928Z,27.30
2017-05-22T08:58:27.011Z,26.70
2017-05-22T09:00:55.309Z,27.40
2017-05-22T09:03:23.637Z,28.40
2017-05-22T09:05:51.938Z,29.20
2017-05-22T09:08:20.245Z,28.90
2017-05-22T09:10:48.566Z,29.10
2017-05-22T09:13:16.874Z,28.80
2017-05-22T09:15:45.214Z,30.30
2017-05-22T09:18:13.505Z,29.00
2017-05-22T09:20:41.791Z,29.20
2017-05-22T09:23:10.111Z,30.30
2017-05-22T09:25:38.406Z,28.60
2017-05-22T09:28:06.731Z,29.20
2017-05-22T09:30:35.030Z,30.10
2017-05-22T09:33:03.342Z,27.50
2017-05-22T09:35:31.658Z,25.90
2017-05-22T09:37:59.966Z,26.40
2017-05-22T09:40:28.331Z,25.40
2017-05-22T09:42:56.626Z,24.80
2017-05-22T09:45:24.938Z,25.30
2017-05-22T09:47:53.250Z,26.30
2017-05-22T09:50:21.554Z,25.80
2017-05-22T09:52:49.878Z,26.10
2017-05-22T09:55:18.210Z,25.70
2017-05-22T09:57:46.510Z,28.40
2017-05-22T10:00:14.819Z,27.50
2017-05-22T10:02:43.149Z,26.40
2017-05-22T10:05:11.481Z,27.10
2017-05-22T10:07:39.790Z,27.10
2017-05-22T10:10:08.090Z,28.40
2017-05-22T10:12:36.402Z,28.00
2017-05-22T10:15:04.694Z,27.80
2017-05-22T10:17:33.027Z,26.10
2017-05-22T10:20:01.338Z,25.50
2017-05-22T10:22:29.641Z,26.10
2017-05-22T10:24:57.957Z,25.00
2017-05-22T10:27:26.281Z,26.40
2017-05-22T10:29:54.614Z,26.00
2017-05-22T10:32:22.903Z,26.70
2017-05-22T10:34:51.215Z,28.40
2017-05-22T10:37:19.545Z,27.00
2017-05-22T10:39:47.834Z,25.10
2017-05-22T10:42:16.156Z,25.70
2017-05-22T10:44:44.456Z,25.20
2017-05-22T10:47:12.774Z,25.20
2017-05-22T10:49:41.091Z,25.90
2017-05-22T10:52:09.393Z,26.50
2017-05-22T10:54:37.733Z,27.20
2017-05-22T10:57:06.023Z,25.70
2017-05-22T10:59:34.339Z,26.40
2017-05-22T11:02:02.667Z,26.60
2017-05-22T11:04:30.972Z,28.50
2017-05-22T11:06:59.288Z,27.10
2017-05-22T11:09:27.595Z,27.50
2017-05-22T11:11:55.905Z,27.00
2017-05-22T11:14:24.218Z,26.20
2017-05-22T11:16:52.514Z,25.50
2017-05-22T11:19:20.838Z,26.90
2017-05-22T11:21:49.147Z,26.10
2017-05-22T11:24:17.454Z,26.80
2017-05-22T11:26:45.772Z,27.30
2017-05-22T11:29:13.305Z,27.30
2017-05-22T11:31:41.643Z,28.60
2017-05-22T11:34:09.950Z,27.40
2017-05-22T11:36:38.251Z,26.10
2017-05-22T11:39:06.569Z,25.60
2017-05-22T11:41:34.099Z,25.60
2017-05-22T11:44:02.428Z,25.50
2017-05-22T11:46:30.750Z,26.90
2017-05-22T11:48:59.057Z,26.70
2017-05-22T11:51:27.370Z,27.00
2017-05-22T11:53:55.669Z,27.80
2017-05-22T11:56:24.002Z,26.70
2017-05-22T11:58:52.290Z,26.20
2017-05-22T12:01:20.603Z,27.30
2017-05-22T12:03:48.919Z,26.10
2017-05-22T12:06:17.223Z,25.90
2017-05-22T12:08:45.551Z,25.20
2017-05-22T12:11:13.839Z,26.00
2017-05-22T12:13:42.146Z,25.00
2017-05-22T12:16:10.466Z,24.20
2017-05-22T12:18:38.764Z,24.70
2017-05-22T12:21:07.091Z,25.60
2017-05-22T12:23:35.386Z,26.70
2017-05-22T12:26:03.682Z,26.10
2017-05-22T12:28:31.995Z,24.40
2017-05-22T12:31:00.299Z,24.60
2017-05-22T12:33:28.610Z,25.40
2017-05-22T12:35:56.901Z,25.00
2017-05-22T12:38:25.195Z,25.60
2017-05-22T12:40:53.538Z,25.00
2017-05-22T12:43:21.082Z,24.90
2017-05-22T12:45:49.378Z,25.70
2017-05-22T12:48:17.688Z,25.60
2017-05-22T12:50:46.080Z,25.80
2017-05-22T12:53:14.414Z,25.50
2017-05-22T12:55:42.705Z,26.20
2017-05-22T12:58:11.002Z,25.50
2017-05-22T13:00:39.318Z,26.10
2017-05-22T13:03:07.622Z,24.80
2017-05-22T13:05:35.937Z,24.30
2017-05-22T13:08:04.223Z,25.20
2017-05-22T13:10:32.518Z,24.20
2017-05-22T13:13:00.834Z,25.70
2017-05-22T13:15:29.282Z,26.20
2017-05-22T13:17:57.599Z,25.80
2017-05-22T13:20:25.902Z,25.50
2017-05-22T13:22:54.191Z,24.40
2017-05-22T13:25:22.504Z,25.40
2017-05-22T13:27:50.817Z,25.40
2017-05-22T13:30:19.126Z,25.60
2017-05-22T13:32:47.434Z,25.70
2017-05-22T13:35:15.742Z,26.00
2017-05-22T13:37:44.047Z,25.40
2017-05-22T13:40:12.339Z,24.40
2017-05-22T13:42:40.656Z,26.10
2017-05-22T13:45:08.950Z,25.40
2017-05-22T13:47:37.250Z,25.90
2017-05-22T13:50:05.578Z,26.00
2017-05-22T13:52:33.870Z,26.30
2017-05-22T13:55:02.202Z,26.90
2017-05-22T13:57:30.498Z,25.60
2017-05-22T13:59:58.792Z,25.80
2017-05-22T14:02:27.130Z,26.10
2017-05-22T14:04:55.431Z,25.60
2017-05-22T14:07:23.758Z,25.40
2017-05-22T14:09:52.069Z,24.90
2017-05-22T14:12:20.367Z,25.60
2017-05-22T14:14:48.686Z,24.90
2017-05-22T14:17:16.982Z,24.30
2017-05-22T14:19:45.302Z,24.10
2017-05-22T14:22:13.596Z,25.70
2017-05-22T14:24:41.890Z,24.80
2017-05-22T14:27:10.240Z,24.00
2017-05-22T14:29:38.739Z,23.50
2017-05-22T14:32:07.063Z,24.60
2017-05-22T14:34:35.355Z,24.30
2017-05-22T14:37:03.649Z,24.50
2017-05-22T14:39:31.972Z,24.80
2017-05-22T14:42:00.261Z,25.60
2017-05-22T14:44:28.578Z,25.10
2017-05-22T14:46:56.866Z,25.70
2017-05-22T14:49:25.162Z,25.40
2017-05-22T14:51:53.471Z,26.40
2017-05-22T14:54:21.786Z,25.80
2017-05-22T14:56:50.115Z,26.10
2017-05-22T14:59:18.417Z,26.40
2017-05-22T15:01:46.757Z,26.00
2017-05-22T15:04:15.071Z,26.20
2017-05-22T15:06:43.368Z,25.10
2017-05-22T15:09:11.694Z,25.80
2017-05-22T15:11:39.991Z,25.80
2017-05-22T15:14:08.286Z,25.40
2017-05-22T15:16:36.622Z,24.40
2017-05-22T15:19:04.926Z,25.00
2017-05-22T15:21:33.239Z,24.90
2017-05-22T15:24:01.525Z,24.60
2017-05-22T15:26:29.822Z,24.60
2017-05-22T15:28:58.135Z,24.60
2017-05-22T15:31:26.435Z,25.70
2017-05-22T15:33:54.763Z,26.60
2017-05-22T15:36:23.131Z,25.50
2017-05-22T15:38:51.431Z,25.50
2017-05-22T15:41:19.737Z,26.20
2017-05-22T15:43:48.024Z,26.50
2017-05-22T15:46:16.349Z,25.60
2017-05-22T15:48:44.749Z,25.50
2017-05-22T15:51:13.058Z,25.60
2017-05-22T15:53:41.379Z,24.50
2017-05-22T15:56:09.792Z,25.90
2017-05-22T15:58:38.106Z,25.80
2017-05-22T16:01:06.429Z,25.40
2017-05-22T16:03:34.727Z,26.10
2017-05-22T16:06:03.043Z,25.40
2017-05-22T16:08:31.362Z,25.30
2017-05-22T16:10:59.670Z,25.80
2017-05-22T16:13:28.003Z,24.90
2017-05-22T16:15:56.324Z,25.00
2017-05-22T16:18:24.621Z,24.30
2017-05-22T16:20:52.931Z,25.20
2017-05-22T16:23:21.243Z,27.10
2017-05-22T16:25:49.535Z,26.00
2017-05-22T16:28:17.854Z,26.60
2017-05-22T16:30:46.157Z,27.20
2017-05-22T16:33:14.460Z,26.60
2017-05-22T16:35:42.780Z,28.30
2017-05-22T16:38:11.078Z,28.80
2017-05-22T16:40:39.389Z,28.90
2017-05-22T16:43:08.110Z,29.70
2017-05-22T16:45:36.399Z,31.50
2017-05-22T16:48:04.713Z,32.80
2017-05-22T16:50:33.013Z,32.60
2017-05-22T16:53:01.359Z,31.60
2017-05-22T16:55:29.658Z,32.90
2017-05-22T16:57:57.956Z,33.30
2017-05-22T17:00:26.380Z,34.20
2017-05-22T17:02:54.687Z,33.00
2017-05-22T17:05:23.010Z,33.80
2017-05-22T17:07:51.309Z,33.10
2017-05-22T17:10:19.608Z,34.00
2017-05-22T17:12:47.966Z,34.60
2017-05-22T17:15:16.263Z,35.60
2017-05-22T17:17:44.582Z,36.00
2017-05-22T17:20:12.875Z,36.00
2017-05-22T17:22:41.181Z,36.10
2017-05-22T17:25:09.493Z,37.00
2017-05-22T17:27:37.791Z,37.00
2017-05-22T17:30:06.112Z,37.60
2017-05-22T17:32:34.417Z,36.90
2017-05-22T17:35:02.718Z,37.20
2017-05-22T17:37:31.025Z,37.80
2017-05-22T17:39:59.325Z,37.60
2017-05-22T17:42:27.634Z,38.40
2017-05-22T17:44:55.927Z,40.30
2017-05-22T17:47:23.464Z,39.60
2017-05-22T17:49:51.795Z,39.00
2017-05-22T17:52:20.096Z,39.50
2017-05-22T17:54:48.410Z,39.40
2017-05-22T17:57:16.716Z,39.30
2017-05-22T17:59:45.025Z,39.20
2017-05-22T18:02:13.338Z,39.80
2017-05-22T18:04:41.633Z,41.70
2017-05-22T18:07:09.946Z,40.40
2017-05-22T18:09:38.238Z,40.50
2017-05-22T18:12:06.551Z,40.90
2017-05-22T18:14:34.867Z,41.50
2017-05-22T18:17:03.169Z,42.20
2017-05-22T18:19:31.488Z,42.90
2017-05-22T18:21:59.801Z,44.50
2017-05-22T18:24:28.103Z,42.80
2017-05-22T18:26:56.431Z,43.20
2017-05-22T18:29:24.735Z,44.30
2017-05-22T18:31:53.108Z,43.20
2017-05-22T18:34:21.413Z,43.40
2017-05-22T18:36:49.733Z,44.40
2017-05-22T18:39:17.357Z,44.40
2017-05-22T18:41:45.656Z,44.20
2017-05-22T18:44:13.953Z,44.00
2017-05-22T18:46:42.277Z,44.40
2017-05-22T18:49:10.588Z,45.10
2017-05-22T18:51:38.926Z,45.20
2017-05-22T18:54:07.223Z,46.60
2017-05-22T18:56:35.521Z,45.90
2017-05-22T18:59:03.845Z,47.00
2017-05-22T19:01:32.141Z,48.00
2017-05-22T19:04:00.468Z,47.90
2017-05-22T19:06:28.770Z,48.70
2017-05-22T19:08:57.071Z,49.60
2017-05-22T19:11:25.386Z,50.10
2017-05-22T19:13:52.916Z,50.00
2017-05-22T19:16:21.235Z,49.20
2017-05-22T19:18:49.533Z,49.60
2017-05-22T19:21:17.835Z,48.70
2017-05-22T19:23:46.165Z,49.50
2017-05-22T19:26:14.466Z,49.60
2017-05-22T19:28:42.781Z,49.90
2017-05-22T19:31:11.079Z,51.30
2017-05-22T19:33:39.390Z,52.20
2017-05-22T19:36:07.711Z,51.40
2017-05-22T19:38:36.013Z,51.40
2017-05-22T19:41:04.339Z,52.30
2017-05-22T19:43:32.657Z,52.10
2017-05-22T19:46:00.954Z,51.30
2017-05-22T19:48:29.273Z,54.00
2017-05-22T19:50:57.574Z,53.30
2017-05-22T19:53:25.898Z,52.80
2017-05-22T19:55:54.198Z,53.50
2017-05-22T19:58:22.504Z,53.50
2017-05-22T20:00:50.844Z,53.40
2017-05-22T20:03:19.139Z,53.20
2017-05-22T20:05:47.444Z,53.20
2017-05-22T20:08:15.762Z,54.60
2017-05-22T20:10:45.172Z,54.30
2017-05-22T20:13:13.471Z,54.30
2017-05-22T20:15:41.798Z,53.40
2017-05-22T20:18:10.099Z,53.30
2017-05-22T20:20:38.422Z,53.30
2017-05-22T20:23:06.957Z,54.10
2017-05-22T20:25:35.257Z,52.70
2017-05-22T20:28:03.582Z,53.50
2017-05-22T20:30:31.873Z,54.30
2017-05-22T20:33:00.178Z,53.50
2017-05-22T20:35:28.516Z,53.60
2017-05-22T20:37:56.815Z,53.60
2017-05-22T20:40:25.143Z,53.90
2017-05-22T20:42:53.447Z,53.70
2017-05-22T20:45:21.745Z,54.40
2017-05-22T20:47:50.067Z,54.70
2017-05-22T20:50:18.378Z,54.60
2017-05-22T20:52:46.709Z,54.50
2017-05-22T20:55:15.006Z,54.50
2017-05-22T20:57:43.311Z,54.80
2017-05-22T21:00:11.638Z,56.00
2017-05-22T21:02:39.936Z,56.00
2017-05-22T21:05:08.281Z,55.80
2017-05-22T21:07:36.573Z,56.20
2017-05-22T21:10:04.878Z,56.60
2017-05-22T21:12:33.187Z,57.10
2017-05-22T21:15:01.482Z,57.70
2017-05-22T21:17:29.800Z,57.90
2017-05-22T21:19:58.097Z,58.30
2017-05-22T21:22:26.394Z,59.10
2017-05-22T21:24:54.714Z,60.70
2017-05-22T21:27:23.006Z,60.50
2017-05-22T21:29:51.319Z,60.10
2017-05-22T21:32:19.636Z,63.00
2017-05-22T21:34:47.964Z,64.20
2017-05-22T21:37:16.250Z,64.70
2017-05-22T21:39:44.563Z,65.40
2017-05-22T21:42:12.875Z,65.90
2017-05-22T21:44:41.178Z,66.10
2017-05-22T21:47:09.494Z,65.60
2017-05-22T21:49:37.794Z,66.50
2017-05-22T21:52:06.090Z,66.70
2017-05-22T21:54:34.402Z,67.70
2017-05-22T21:57:02.699Z,68.80
2017-05-22T21:59:31.021Z,70.30
2017-05-22T22:01:59.326Z,70.50
2017-05-22T22:04:27.620Z,71.70
2017-05-22T22:06:55.934Z,71.90
2017-05-22T22:09:24.238Z,73.10
2017-05-22T22:11:52.553Z,74.00
2017-05-22T22:14:20.850Z,73.80
2017-05-22T22:16:49.145Z,74.80
2017-05-22T22:19:17.453Z,74.60
2017-05-22T22:21:45.748Z,75.10
2017-05-22T22:24:14.075Z,75.60
2017-05-22T22:26:42.368Z,75.40
2017-05-22T22:29:09.907Z,75.40
2017-05-22T22:31:38.228Z,75.90
2017-05-22T22:34:06.527Z,75.00
2017-05-22T22:36:34.846Z,75.80
2017-05-22T22:39:03.146Z,76.30
2017-05-22T22:41:31.429Z,75.80
2017-05-22T22:43:59.734Z,75.50
2017-05-22T22:46:28.022Z,74.80
2017-05-22T22:48:56.338Z,75.80
2017-05-22T22:51:24.631Z,75.60
2017-05-22T22:53:52.922Z,75.60
2017-05-22T22:56:21.243Z,75.60
2017-05-22T22:58:49.550Z,75.60
2017-05-22T23:01:17.884Z,76.80
2017-05-22T23:03:46.183Z,76.70
2017-05-22T23:06:14.485Z,76.20
2017-05-22T23:08:42.804Z,75.70
2017-05-22T23:11:11.098Z,75.70
2017-05-22T23:13:39.424Z,74.50
2017-05-22T23:16:07.721Z,74.90
2017-05-22T23:18:36.018Z,75.10
2017-05-22T23:21:04.335Z,74.60
2017-05-22T23:23:32.637Z,74.50
2017-05-22T23:26:00.946Z,74.90
2017-05-22T23:28:29.233Z,75.10
2017-05-22T23:30:57.550Z,75.10
2017-05-22T23:33:25.848Z,75.10
2017-05-22T23:35:54.151Z,75.60
2017-05-22T23:38:22.466Z,75.60
2017-05-22T23:40:50.769Z,75.90
2017-05-22T23:43:19.090Z,76.20
2017-05-22T23:45:47.375Z,76.00
2017-05-22T23:48:15.674Z,76.20
2017-05-22T23:50:43.980Z,77.00
2017-05-22T23:53:12.280Z,77.10
2017-05-22T23:55:40.589Z,77.60
2017-05-22T23:58:08.891Z,77.80
